PGRO/ROP METAR and TAF weather

Enter ICAO airport designator
Station Type Date Time Source
PGRO METAR 2019/08/25 09:50 UTC NOAA

PGRO 250950Z 14010KT 7SM FEW020 SCT080 27/23 A2979 RMK WIND DATA ESTIMATED LAST


Station Type Date Time Source
PGRO Decoded METAR 2019/08/25 09:50 UTC NOAA

Station name not available
Aug 25, 2019 - 05:50 AM EDT / 2019.08.25 0950 UTC
Wind: from the SE (140 degrees) at 12 MPH (10 KT):0
Visibility: 7 mile(s):0
Sky conditions: partly cloudy
Temperature: 80 F (27 C)
Dew Point: 73 F (23 C)
Relative Humidity: 78%
Pressure (altimeter): 29.79 in. Hg (1008 hPa)
ob: PGRO 250950Z 14010KT 7SM FEW020 SCT080 27/23 A2979 RMK WIND DATA ESTIMATED LAST
cycle: 10

Station Type Date Time Source
PGRO TAF 2019/08/25 06:30 UTC NOAA

TAF PGRO 250629Z 2506/2606 14012KT P6SM VCSH SCT015 SCT100

Example: see airport list